sensor_id;sensor_type;location;lat;lon;timestamp;pressure;altitude;pressure_sealevel;temperature;humidity
63088;BME280;49173;43.164;27.786;2024-02-23T00:02:03;100494.78;;;5.72;83.33
63088;BME280;49173;43.164;27.786;2024-02-23T00:04:28;100493.72;;;5.76;83.22
63088;BME280;49173;43.164;27.786;2024-02-23T00:06:54;100493.59;;;5.81;82.90
63088;BME280;49173;43.164;27.786;2024-02-23T00:09:20;100484.81;;;5.77;82.79
63088;BME280;49173;43.164;27.786;2024-02-23T00:11:45;100486.13;;;5.66;82.86
63088;BME280;49173;43.164;27.786;2024-02-23T00:14:12;100478.13;;;5.66;82.70
63088;BME280;49173;43.164;27.786;2024-02-23T00:16:38;100478.75;;;5.74;83.20
63088;BME280;49173;43.164;27.786;2024-02-23T00:19:05;100472.63;;;5.70;83.57
63088;BME280;49173;43.164;27.786;2024-02-23T00:21:31;100475.59;;;5.61;83.69
63088;BME280;49173;43.164;27.786;2024-02-23T00:23:56;100464.91;;;5.63;83.97
63088;BME280;49173;43.164;27.786;2024-02-23T00:26:22;100471.31;;;5.57;83.85
63088;BME280;49173;43.164;27.786;2024-02-23T00:28:47;100464.91;;;5.63;83.89
63088;BME280;49173;43.164;27.786;2024-02-23T00:31:13;100475.28;;;5.70;83.56
63088;BME280;49173;43.164;27.786;2024-02-23T00:33:38;100472.63;;;5.70;83.77
63088;BME280;49173;43.164;27.786;2024-02-23T00:36:07;100462.81;;;5.72;83.66
63088;BME280;49173;43.164;27.786;2024-02-23T00:38:32;100461.78;;;5.76;83.80
63088;BME280;49173;43.164;27.786;2024-02-23T00:40:58;100460.25;;;5.69;84.38
63088;BME280;49173;43.164;27.786;2024-02-23T00:43:23;100449.78;;;5.63;84.97
63088;BME280;49173;43.164;27.786;2024-02-23T00:45:49;100457.03;;;5.60;85.48
63088;BME280;49173;43.164;27.786;2024-02-23T00:48:15;100452.31;;;5.68;86.10
63088;BME280;49173;43.164;27.786;2024-02-23T00:50:40;100451.44;;;5.67;85.54
63088;BME280;49173;43.164;27.786;2024-02-23T00:53:06;100449.72;;;5.66;85.64
63088;BME280;49173;43.164;27.786;2024-02-23T00:55:31;100446.94;;;5.69;85.96
63088;BME280;49173;43.164;27.786;2024-02-23T00:57:57;100447.00;;;5.68;85.83
63088;BME280;49173;43.164;27.786;2024-02-23T01:00:24;100435.19;;;5.75;86.76
63088;BME280;49173;43.164;27.786;2024-02-23T01:02:49;100431.41;;;5.82;87.53
63088;BME280;49173;43.164;27.786;2024-02-23T01:05:17;100428.91;;;5.77;87.52
63088;BME280;49173;43.164;27.786;2024-02-23T01:07:42;100431.63;;;5.76;87.18
63088;BME280;49173;43.164;27.786;2024-02-23T01:10:08;100429.78;;;5.78;87.36
63088;BME280;49173;43.164;27.786;2024-02-23T01:12:35;100424.69;;;5.72;87.38
63088;BME280;49173;43.164;27.786;2024-02-23T01:15:00;100428.28;;;5.69;87.64
63088;BME280;49173;43.164;27.786;2024-02-23T01:17:26;100428.94;;;5.76;87.70
63088;BME280;49173;43.164;27.786;2024-02-23T01:19:51;100417.56;;;5.72;87.57
63088;BME280;49173;43.164;27.786;2024-02-23T01:22:17;100417.44;;;5.75;87.90
63088;BME280;49173;43.164;27.786;2024-02-23T01:24:43;100428.00;;;5.78;87.59
63088;BME280;49173;43.164;27.786;2024-02-23T01:27:08;100416.69;;;5.72;87.69
63088;BME280;49173;43.164;27.786;2024-02-23T01:29:34;100406.69;;;5.78;88.34
63088;BME280;49173;43.164;27.786;2024-02-23T01:32:00;100400.38;;;5.81;88.22
63088;BME280;49173;43.164;27.786;2024-02-23T01:34:25;100395.91;;;5.82;88.56
63088;BME280;49173;43.164;27.786;2024-02-23T01:36:51;100388.75;;;5.84;88.44
63088;BME280;49173;43.164;27.786;2024-02-23T01:39:16;100393.03;;;5.88;89.02
63088;BME280;49173;43.164;27.786;2024-02-23T01:41:42;100383.25;;;5.88;88.82
63088;BME280;49173;43.164;27.786;2024-02-23T01:44:09;100373.53;;;5.87;88.46
63088;BME280;49173;43.164;27.786;2024-02-23T01:46:35;100372.66;;;5.87;88.25
63088;BME280;49173;43.164;27.786;2024-02-23T01:49:01;100370.81;;;5.89;88.49
63088;BME280;49173;43.164;27.786;2024-02-23T01:51:26;100386.06;;;5.84;88.76
63088;BME280;49173;43.164;27.786;2024-02-23T01:53:52;100380.72;;;5.85;89.14
63088;BME280;49173;43.164;27.786;2024-02-23T01:56:17;100381.53;;;5.87;89.78
63088;BME280;49173;43.164;27.786;2024-02-23T01:58:44;100383.53;;;5.81;89.56
63088;BME280;49173;43.164;27.786;2024-02-23T02:01:10;100374.63;;;5.82;90.06
63088;BME280;49173;43.164;27.786;2024-02-23T02:03:36;100366.56;;;5.83;90.17
63088;BME280;49173;43.164;27.786;2024-02-23T02:06:03;100372.75;;;5.84;90.15
63088;BME280;49173;43.164;27.786;2024-02-23T02:08:29;100371.69;;;5.89;89.63
63088;BME280;49173;43.164;27.786;2024-02-23T02:10:55;100375.28;;;5.88;89.32
63088;BME280;49173;43.164;27.786;2024-02-23T02:13:21;100379.72;;;5.88;89.26
63088;BME280;49173;43.164;27.786;2024-02-23T02:15:46;100382.47;;;5.86;89.09
63088;BME280;49173;43.164;27.786;2024-02-23T02:18:12;100375.28;;;5.88;89.63
63088;BME280;49173;43.164;27.786;2024-02-23T02:20:37;100383.63;;;5.77;89.62
63088;BME280;49173;43.164;27.786;2024-02-23T02:23:06;100380.41;;;5.68;89.70
63088;BME280;49173;43.164;27.786;2024-02-23T02:25:33;100383.69;;;5.49;90.08
63088;BME280;49173;43.164;27.786;2024-02-23T02:27:58;100389.09;;;5.48;90.15
63088;BME280;49173;43.164;27.786;2024-02-23T02:30:24;100390.00;;;5.47;90.30
63088;BME280;49173;43.164;27.786;2024-02-23T02:32:49;100383.94;;;5.43;90.76
63088;BME280;49173;43.164;27.786;2024-02-23T02:35:15;100379.56;;;5.41;91.11
63088;BME280;49173;43.164;27.786;2024-02-23T02:37:41;100369.69;;;5.44;90.77
63088;BME280;49173;43.164;27.786;2024-02-23T02:40:06;100370.56;;;5.45;90.85
63088;BME280;49173;43.164;27.786;2024-02-23T02:42:33;100366.88;;;5.49;91.03
63088;BME280;49173;43.164;27.786;2024-02-23T02:44:58;100367.69;;;5.51;91.47
63088;BME280;49173;43.164;27.786;2024-02-23T02:47:24;100361.34;;;5.55;91.82
63088;BME280;49173;43.164;27.786;2024-02-23T02:49:49;100372.69;;;5.60;91.92
63088;BME280;49173;43.164;27.786;2024-02-23T02:52:16;100374.56;;;5.58;91.94
63088;BME280;49173;43.164;27.786;2024-02-23T02:54:44;100373.84;;;5.53;92.31
63088;BME280;49173;43.164;27.786;2024-02-23T02:57:09;100363.72;;;5.63;92.63
63088;BME280;49173;43.164;27.786;2024-02-23T02:59:35;100370.78;;;5.64;92.90
63088;BME280;49173;43.164;27.786;2024-02-23T03:02:01;100364.59;;;5.63;92.86
63088;BME280;49173;43.164;27.786;2024-02-23T03:04:26;100368.97;;;5.66;92.99
63088;BME280;49173;43.164;27.786;2024-02-23T03:06:52;100366.31;;;5.66;92.72
63088;BME280;49173;43.164;27.786;2024-02-23T03:09:17;100359.19;;;5.66;92.51
63088;BME280;49173;43.164;27.786;2024-02-23T03:11:43;100367.81;;;5.73;93.52
63088;BME280;49173;43.164;27.786;2024-02-23T03:14:08;100370.44;;;5.74;92.51
63088;BME280;49173;43.164;27.786;2024-02-23T03:16:35;100375.38;;;5.60;92.17
63088;BME280;49173;43.164;27.786;2024-02-23T03:19:02;100380.03;;;5.54;91.43
63088;BME280;49173;43.164;27.786;2024-02-23T03:21:28;100380.41;;;5.43;91.79
63088;BME280;49173;43.164;27.786;2024-02-23T03:23:53;100371.50;;;5.44;91.85
63088;BME280;49173;43.164;27.786;2024-02-23T03:26:19;100372.50;;;5.40;92.13
63088;BME280;49173;43.164;27.786;2024-02-23T03:28:45;100371.50;;;5.44;92.40
63088;BME280;49173;43.164;27.786;2024-02-23T03:31:11;100373.44;;;5.39;92.27
63088;BME280;49173;43.164;27.786;2024-02-23T03:33:36;100373.88;;;5.25;91.84
63088;BME280;49173;43.164;27.786;2024-02-23T03:36:02;100364.13;;;5.26;91.67
63088;BME280;49173;43.164;27.786;2024-02-23T03:38:28;100366.91;;;5.22;91.49
63088;BME280;49173;43.164;27.786;2024-02-23T03:40:55;100366.97;;;5.19;91.85
63088;BME280;49173;43.164;27.786;2024-02-23T03:43:20;100367.22;;;5.12;91.62
63088;BME280;49173;43.164;27.786;2024-02-23T03:45:46;100355.91;;;5.05;92.03
63088;BME280;49173;43.164;27.786;2024-02-23T03:48:12;100361.91;;;5.12;92.43
63088;BME280;49173;43.164;27.786;2024-02-23T03:50:37;100350.25;;;5.16;92.87
63088;BME280;49173;43.164;27.786;2024-02-23T03:53:03;100365.19;;;5.20;92.73
63088;BME280;49173;43.164;27.786;2024-02-23T03:55:29;100361.84;;;5.13;93.14
63088;BME280;49173;43.164;27.786;2024-02-23T03:57:54;100355.25;;;5.25;94.02
63088;BME280;49173;43.164;27.786;2024-02-23T04:00:20;100358.78;;;5.26;94.12
63088;BME280;49173;43.164;27.786;2024-02-23T04:02:48;100355.00;;;5.33;94.41
63088;BME280;49173;43.164;27.786;2024-02-23T04:05:13;100359.25;;;5.38;94.08
63088;BME280;49173;43.164;27.786;2024-02-23T04:07:39;100353.13;;;5.36;94.26
63088;BME280;49173;43.164;27.786;2024-02-23T04:10:05;100356.00;;;5.30;93.52
63088;BME280;49173;43.164;27.786;2024-02-23T04:12:31;100355.88;;;5.33;93.36
63088;BME280;49173;43.164;27.786;2024-02-23T04:14:57;100351.63;;;5.28;94.08
63088;BME280;49173;43.164;27.786;2024-02-23T04:17:22;100344.38;;;5.33;94.19
63088;BME280;49173;43.164;27.786;2024-02-23T04:19:48;100353.88;;;5.40;95.09
63088;BME280;49173;43.164;27.786;2024-02-23T04:22:13;100335.25;;;5.40;95.30
63088;BME280;49173;43.164;27.786;2024-02-23T04:24:39;100347.47;;;5.45;95.55
63088;BME280;49173;43.164;27.786;2024-02-23T04:27:05;100346.50;;;5.48;95.98
63088;BME280;49173;43.164;27.786;2024-02-23T04:29:31;100352.47;;;5.55;96.87
63088;BME280;49173;43.164;27.786;2024-02-23T04:31:57;100339.81;;;5.61;97.58
63088;BME280;49173;43.164;27.786;2024-02-23T04:34:23;100341.47;;;5.65;97.84
63088;BME280;49173;43.164;27.786;2024-02-23T04:36:48;100337.72;;;5.71;98.07
63088;BME280;49173;43.164;27.786;2024-02-23T04:39:14;100337.66;;;5.72;98.61
63088;BME280;49173;43.164;27.786;2024-02-23T04:41:40;100347.28;;;5.76;98.76
63088;BME280;49173;43.164;27.786;2024-02-23T04:44:05;100343.88;;;5.73;97.78
63088;BME280;49173;43.164;27.786;2024-02-23T04:46:31;100360.25;;;5.61;96.77
63088;BME280;49173;43.164;27.786;2024-02-23T04:48:57;100351.63;;;5.54;96.54
63088;BME280;49173;43.164;27.786;2024-02-23T04:51:22;100353.19;;;5.60;96.43
63088;BME280;49173;43.164;27.786;2024-02-23T04:53:49;100356.59;;;5.63;97.00
63088;BME280;49173;43.164;27.786;2024-02-23T04:56:14;100360.84;;;5.69;98.07
63088;BME280;49173;43.164;27.786;2024-02-23T04:58:40;100357.31;;;5.68;97.60
63088;BME280;49173;43.164;27.786;2024-02-23T05:01:09;100361.91;;;5.65;97.48
63088;BME280;49173;43.164;27.786;2024-02-23T05:03:34;100356.59;;;5.65;97.60
63088;BME280;49173;43.164;27.786;2024-02-23T05:06:01;100368.19;;;5.62;97.58
63088;BME280;49173;43.164;27.786;2024-02-23T05:08:27;100364.91;;;5.54;96.89
63088;BME280;49173;43.164;27.786;2024-02-23T05:10:53;100370.41;;;5.49;96.73
63088;BME280;49173;43.164;27.786;2024-02-23T05:13:18;100372.16;;;5.50;96.60
63088;BME280;49173;43.164;27.786;2024-02-23T05:15:44;100370.03;;;5.60;97.05
63088;BME280;49173;43.164;27.786;2024-02-23T05:18:09;100369.84;;;5.66;97.05
63088;BME280;49173;43.164;27.786;2024-02-23T05:20:35;100380.88;;;5.81;97.86
63088;BME280;49173;43.164;27.786;2024-02-23T05:23:01;100380.34;;;5.96;98.12
63088;BME280;49173;43.164;27.786;2024-02-23T05:25:26;100378.28;;;6.04;98.71
63088;BME280;49173;43.164;27.786;2024-02-23T05:27:52;100382.94;;;6.22;100.00
63088;BME280;49173;43.164;27.786;2024-02-23T05:30:18;100387.63;;;6.39;100.00
63088;BME280;49173;43.164;27.786;2024-02-23T05:32:44;100379.03;;;6.56;100.00
63088;BME280;49173;43.164;27.786;2024-02-23T05:35:09;100378.53;;;6.68;100.00
63088;BME280;49173;43.164;27.786;2024-02-23T05:37:35;100383.63;;;6.74;99.74
63088;BME280;49173;43.164;27.786;2024-02-23T05:40:03;100388.31;;;6.91;99.38
63088;BME280;49173;43.164;27.786;2024-02-23T05:42:32;100387.00;;;7.23;99.82
63088;BME280;49173;43.164;27.786;2024-02-23T05:44:58;100381.22;;;7.56;98.43
63088;BME280;49173;43.164;27.786;2024-02-23T05:47:23;100372.72;;;7.87;96.57
63088;BME280;49173;43.164;27.786;2024-02-23T05:49:50;100384.03;;;8.14;94.55
63088;BME280;49173;43.164;27.786;2024-02-23T05:52:15;100388.88;;;8.24;92.50
63088;BME280;49173;43.164;27.786;2024-02-23T05:54:42;100380.84;;;8.24;91.89
63088;BME280;49173;43.164;27.786;2024-02-23T05:57:07;100387.13;;;8.23;91.48
63088;BME280;49173;43.164;27.786;2024-02-23T05:59:34;100383.53;;;8.24;91.56
63088;BME280;49173;43.164;27.786;2024-02-23T06:02:01;100390.94;;;8.38;92.77
63088;BME280;49173;43.164;27.786;2024-02-23T06:04:27;100391.50;;;9.03;96.41
63088;BME280;49173;43.164;27.786;2024-02-23T06:06:53;100391.84;;;10.02;92.76
63088;BME280;49173;43.164;27.786;2024-02-23T06:09:18;100387.41;;;10.85;87.14
63088;BME280;49173;43.164;27.786;2024-02-23T06:11:44;100391.50;;;11.23;83.65
63088;BME280;49173;43.164;27.786;2024-02-23T06:14:10;100389.66;;;11.24;80.62
63088;BME280;49173;43.164;27.786;2024-02-23T06:16:36;100391.41;;;11.09;80.52
63088;BME280;49173;43.164;27.786;2024-02-23T06:19:02;100392.09;;;10.97;80.66
63088;BME280;49173;43.164;27.786;2024-02-23T06:21:28;100391.75;;;10.87;81.53
63088;BME280;49173;43.164;27.786;2024-02-23T06:23:54;100393.91;;;10.81;82.32
63088;BME280;49173;43.164;27.786;2024-02-23T06:26:20;100390.69;;;10.74;82.57
63088;BME280;49173;43.164;27.786;2024-02-23T06:28:45;100383.69;;;10.71;83.32
63088;BME280;49173;43.164;27.786;2024-02-23T06:31:11;100385.66;;;10.68;83.71
63088;BME280;49173;43.164;27.786;2024-02-23T06:33:37;100388.78;;;10.76;85.79
63088;BME280;49173;43.164;27.786;2024-02-23T06:36:03;100399.72;;;10.89;84.10
63088;BME280;49173;43.164;27.786;2024-02-23T06:38:29;100399.19;;;10.98;82.67
63088;BME280;49173;43.164;27.786;2024-02-23T06:40:55;100396.50;;;10.98;82.68
63088;BME280;49173;43.164;27.786;2024-02-23T06:43:21;100394.97;;;10.94;82.64
63088;BME280;49173;43.164;27.786;2024-02-23T06:45:47;100392.78;;;10.85;81.90
63088;BME280;49173;43.164;27.786;2024-02-23T06:48:13;100388.78;;;10.76;82.00
63088;BME280;49173;43.164;27.786;2024-02-23T06:50:39;100389.22;;;10.68;82.41
63088;BME280;49173;43.164;27.786;2024-02-23T06:53:04;100387.81;;;10.61;82.78
63088;BME280;49173;43.164;27.786;2024-02-23T06:55:32;100381.06;;;10.54;82.90
63088;BME280;49173;43.164;27.786;2024-02-23T06:57:58;100378.59;;;10.50;83.23
63088;BME280;49173;43.164;27.786;2024-02-23T07:00:24;100369.88;;;10.46;84.22
63088;BME280;49173;43.164;27.786;2024-02-23T07:02:49;100369.88;;;10.46;84.97
63088;BME280;49173;43.164;27.786;2024-02-23T07:05:15;100381.38;;;10.48;86.21
63088;BME280;49173;43.164;27.786;2024-02-23T07:07:40;100379.56;;;10.49;86.88
63088;BME280;49173;43.164;27.786;2024-02-23T07:10:06;100383.09;;;10.49;87.59
63088;BME280;49173;43.164;27.786;2024-02-23T07:12:32;100383.28;;;10.46;87.14
63088;BME280;49173;43.164;27.786;2024-02-23T07:14:58;100381.66;;;10.43;86.76
63088;BME280;49173;43.164;27.786;2024-02-23T07:17:23;100380.94;;;10.40;87.31
63088;BME280;49173;43.164;27.786;2024-02-23T07:19:49;100377.63;;;10.35;87.29
63088;BME280;49173;43.164;27.786;2024-02-23T07:22:16;100383.94;;;10.34;87.40
63088;BME280;49173;43.164;27.786;2024-02-23T07:24:43;100382.03;;;10.36;87.66
63088;BME280;49173;43.164;27.786;2024-02-23T07:27:09;100383.94;;;10.34;87.26
63088;BME280;49173;43.164;27.786;2024-02-23T07:29:35;100377.63;;;10.35;86.70
63088;BME280;49173;43.164;27.786;2024-02-23T07:32:01;100372.44;;;10.32;85.81
63088;BME280;49173;43.164;27.786;2024-02-23T07:34:26;100369.13;;;10.27;85.75
63088;BME280;49173;43.164;27.786;2024-02-23T07:36:52;100378.22;;;10.24;85.87
63088;BME280;49173;43.164;27.786;2024-02-23T07:39:18;100375.53;;;10.24;86.16
63088;BME280;49173;43.164;27.786;2024-02-23T07:41:43;100375.44;;;10.26;87.15
63088;BME280;49173;43.164;27.786;2024-02-23T07:44:09;100377.16;;;10.27;88.11
63088;BME280;49173;43.164;27.786;2024-02-23T07:46:34;100374.16;;;10.33;88.40
63088;BME280;49173;43.164;27.786;2024-02-23T07:49:00;100372.34;;;10.33;87.66
63088;BME280;49173;43.164;27.786;2024-02-23T07:51:26;100381.59;;;10.28;87.14
63088;BME280;49173;43.164;27.786;2024-02-23T07:53:51;100378.03;;;10.27;86.99
63088;BME280;49173;43.164;27.786;2024-02-23T07:56:17;100374.34;;;10.30;87.35
63088;BME280;49173;43.164;27.786;2024-02-23T07:58:42;100375.91;;;10.34;87.99
63088;BME280;49173;43.164;27.786;2024-02-23T08:01:08;100381.59;;;10.28;87.31
63088;BME280;49173;43.164;27.786;2024-02-23T08:03:33;100373.63;;;10.26;86.93
63088;BME280;49173;43.164;27.786;2024-02-23T08:05:59;100373.53;;;10.28;86.82
63088;BME280;49173;43.164;27.786;2024-02-23T08:08:26;100375.75;;;10.37;87.41
63088;BME280;49173;43.164;27.786;2024-02-23T08:10:53;100373.50;;;10.45;86.92
63088;BME280;49173;43.164;27.786;2024-02-23T08:13:20;100367.09;;;10.48;86.76
63088;BME280;49173;43.164;27.786;2024-02-23T08:15:46;100366.00;;;10.52;87.81
63088;BME280;49173;43.164;27.786;2024-02-23T08:18:11;100373.19;;;10.51;87.42
63088;BME280;49173;43.164;27.786;2024-02-23T08:20:37;100368.59;;;10.53;87.01
63088;BME280;49173;43.164;27.786;2024-02-23T08:23:03;100371.72;;;10.61;86.63
63088;BME280;49173;43.164;27.786;2024-02-23T08:25:28;100370.31;;;10.70;87.55
63088;BME280;49173;43.164;27.786;2024-02-23T08:27:55;100369.91;;;10.78;87.11
63088;BME280;49173;43.164;27.786;2024-02-23T08:30:22;100368.69;;;10.83;86.50
63088;BME280;49173;43.164;27.786;2024-02-23T08:32:48;100382.50;;;10.93;85.75
63088;BME280;49173;43.164;27.786;2024-02-23T08:35:13;100374.25;;;11.12;85.41
63088;BME280;49173;43.164;27.786;2024-02-23T08:37:40;100382.38;;;11.26;85.60
63088;BME280;49173;43.164;27.786;2024-02-23T08:40:07;100369.34;;;11.34;84.53
63088;BME280;49173;43.164;27.786;2024-02-23T08:42:33;100373.72;;;11.37;82.11
63088;BME280;49173;43.164;27.786;2024-02-23T08:44:59;100378.03;;;11.39;82.15
63088;BME280;49173;43.164;27.786;2024-02-23T08:47:24;100380.03;;;11.36;81.78
63088;BME280;49173;43.164;27.786;2024-02-23T08:49:53;100376.81;;;11.45;82.04
63088;BME280;49173;43.164;27.786;2024-02-23T08:52:18;100376.09;;;11.57;81.60
63088;BME280;49173;43.164;27.786;2024-02-23T08:54:44;100382.84;;;11.64;80.89
63088;BME280;49173;43.164;27.786;2024-02-23T08:57:10;100372.22;;;11.77;80.37
63088;BME280;49173;43.164;27.786;2024-02-23T08:59:35;100365.25;;;11.89;78.96
63088;BME280;49173;43.164;27.786;2024-02-23T09:02:01;100360.38;;;11.95;78.10
63088;BME280;49173;43.164;27.786;2024-02-23T09:04:27;100369.16;;;12.13;77.86
63088;BME280;49173;43.164;27.786;2024-02-23T09:06:53;100364.78;;;12.26;76.76
63088;BME280;49173;43.164;27.786;2024-02-23T09:09:19;100370.22;;;12.39;75.76
63088;BME280;49173;43.164;27.786;2024-02-23T09:11:45;100372.84;;;12.55;74.95
63088;BME280;49173;43.164;27.786;2024-02-23T09:14:10;100376.03;;;12.61;74.20
63088;BME280;49173;43.164;27.786;2024-02-23T09:16:36;100363.59;;;12.73;73.38
63088;BME280;49173;43.164;27.786;2024-02-23T09:19:01;100375.69;;;12.80;72.22
63088;BME280;49173;43.164;27.786;2024-02-23T09:21:27;100366.25;;;12.87;71.46
63088;BME280;49173;43.164;27.786;2024-02-23T09:23:52;100372.00;;;12.96;71.17
63088;BME280;49173;43.164;27.786;2024-02-23T09:26:18;100358.94;;;13.04;70.93
63088;BME280;49173;43.164;27.786;2024-02-23T09:28:44;100365.94;;;13.06;70.59
63088;BME280;49173;43.164;27.786;2024-02-23T09:31:10;100357.56;;;13.11;70.18
63088;BME280;49173;43.164;27.786;2024-02-23T09:33:37;100353.31;;;13.21;69.88
63088;BME280;49173;43.164;27.786;2024-02-23T09:36:02;100351.38;;;13.23;69.31
63088;BME280;49173;43.164;27.786;2024-02-23T09:38:28;100346.66;;;13.27;69.20
63088;BME280;49173;43.164;27.786;2024-02-23T09:40:53;100344.50;;;13.32;68.77
63088;BME280;49173;43.164;27.786;2024-02-23T09:43:20;100341.31;;;13.39;68.73
63088;BME280;49173;43.164;27.786;2024-02-23T09:45:47;100339.69;;;13.37;68.46
63088;BME280;49173;43.164;27.786;2024-02-23T09:48:16;100344.03;;;13.39;68.27
63088;BME280;49173;43.164;27.786;2024-02-23T09:50:44;100332.38;;;13.52;68.40
63088;BME280;49173;43.164;27.786;2024-02-23T09:53:11;100337.47;;;13.56;67.70
63088;BME280;49173;43.164;27.786;2024-02-23T09:55:38;100338.78;;;13.63;66.87
63088;BME280;49173;43.164;27.786;2024-02-23T09:58:03;100342.78;;;13.70;66.90
63088;BME280;49173;43.164;27.786;2024-02-23T10:00:29;100322.63;;;13.76;66.80
63088;BME280;49173;43.164;27.786;2024-02-23T10:02:56;100343.00;;;13.80;65.08
63088;BME280;49173;43.164;27.786;2024-02-23T10:05:23;100330.19;;;13.84;64.71
63088;BME280;49173;43.164;27.786;2024-02-23T10:07:54;100335.25;;;13.88;65.46
63088;BME280;49173;43.164;27.786;2024-02-23T10:10:32;100334.50;;;13.86;65.67
63088;BME280;49173;43.164;27.786;2024-02-23T10:13:00;100323.19;;;13.94;65.28
63088;BME280;49173;43.164;27.786;2024-02-23T10:15:25;100329.13;;;13.99;63.59
63088;BME280;49173;43.164;27.786;2024-02-23T10:17:51;100325.25;;;14.03;64.29
63088;BME280;49173;43.164;27.786;2024-02-23T10:20:16;100320.59;;;14.05;64.35
63088;BME280;49173;43.164;27.786;2024-02-23T10:22:42;100318.53;;;14.09;64.09
63088;BME280;49173;43.164;27.786;2024-02-23T10:25:09;100317.91;;;14.18;63.25
63088;BME280;49173;43.164;27.786;2024-02-23T10:27:34;100313.16;;;14.21;63.72
63088;BME280;49173;43.164;27.786;2024-02-23T10:30:00;100308.41;;;14.25;63.54
63088;BME280;49173;43.164;27.786;2024-02-23T10:32:26;100315.41;;;14.27;63.19
63088;BME280;49173;43.164;27.786;2024-02-23T10:34:54;100309.59;;;14.34;60.95
63088;BME280;49173;43.164;27.786;2024-02-23T10:37:22;100311.84;;;14.40;62.16
63088;BME280;49173;43.164;27.786;2024-02-23T10:39:48;100309.78;;;14.43;62.18
63088;BME280;49173;43.164;27.786;2024-02-23T10:42:15;100307.66;;;14.48;62.53
63088;BME280;49173;43.164;27.786;2024-02-23T10:44:45;100305.59;;;14.52;61.89
63088;BME280;49173;43.164;27.786;2024-02-23T10:47:11;100298.25;;;14.54;62.53
63088;BME280;49173;43.164;27.786;2024-02-23T10:49:37;100302.34;;;14.60;62.03
63088;BME280;49173;43.164;27.786;2024-02-23T10:52:03;100302.66;;;14.68;61.70
63088;BME280;49173;43.164;27.786;2024-02-23T10:54:30;100298.63;;;14.73;60.02
63088;BME280;49173;43.164;27.786;2024-02-23T10:56:56;100297.53;;;14.76;59.58
63088;BME280;49173;43.164;27.786;2024-02-23T10:59:22;100293.84;;;14.77;60.20
63088;BME280;49173;43.164;27.786;2024-02-23T11:01:48;100295.59;;;14.78;60.10
63088;BME280;49173;43.164;27.786;2024-02-23T11:04:16;100290.84;;;14.81;59.28
63088;BME280;49173;43.164;27.786;2024-02-23T11:06:42;100280.66;;;14.85;59.44
63088;BME280;49173;43.164;27.786;2024-02-23T11:09:12;100277.72;;;14.88;59.24
63088;BME280;49173;43.164;27.786;2024-02-23T11:11:38;100280.94;;;14.93;59.30
63088;BME280;49173;43.164;27.786;2024-02-23T11:14:07;100273.22;;;15.00;58.49
63088;BME280;49173;43.164;27.786;2024-02-23T11:16:34;100279.16;;;15.05;58.11
63088;BME280;49173;43.164;27.786;2024-02-23T11:19:04;100280.56;;;15.10;58.10
63088;BME280;49173;43.164;27.786;2024-02-23T11:21:34;100286.81;;;15.11;57.23
63088;BME280;49173;43.164;27.786;2024-02-23T11:24:02;100282.28;;;15.11;56.81
63088;BME280;49173;43.164;27.786;2024-02-23T11:26:28;100278.38;;;15.16;56.94
63088;BME280;49173;43.164;27.786;2024-02-23T11:28:53;100270.34;;;15.14;56.80
63088;BME280;49173;43.164;27.786;2024-02-23T11:31:20;100269.38;;;15.15;56.57
63088;BME280;49173;43.164;27.786;2024-02-23T11:33:49;100257.69;;;15.15;56.99
63088;BME280;49173;43.164;27.786;2024-02-23T11:36:27;100252.66;;;15.10;56.43
63088;BME280;49173;43.164;27.786;2024-02-23T11:38:53;100255.13;;;15.13;56.95
63088;BME280;49173;43.164;27.786;2024-02-23T11:41:22;100261.03;;;15.18;56.69
63088;BME280;49173;43.164;27.786;2024-02-23T11:43:51;100259.72;;;15.24;56.34
63088;BME280;49173;43.164;27.786;2024-02-23T11:46:17;100253.59;;;15.33;56.38
63088;BME280;49173;43.164;27.786;2024-02-23T11:48:43;100247.72;;;15.39;56.05
63088;BME280;49173;43.164;27.786;2024-02-23T11:51:09;100247.00;;;15.48;55.98
63088;BME280;49173;43.164;27.786;2024-02-23T11:53:38;100248.13;;;15.57;55.36
63088;BME280;49173;43.164;27.786;2024-02-23T11:56:04;100243.78;;;15.67;55.74
63088;BME280;49173;43.164;27.786;2024-02-23T11:58:31;100246.41;;;15.80;55.15
63088;BME280;49173;43.164;27.786;2024-02-23T12:00:57;100251.19;;;15.87;53.93
63088;BME280;49173;43.164;27.786;2024-02-23T12:03:23;100247.16;;;15.93;53.82
63088;BME280;49173;43.164;27.786;2024-02-23T12:05:50;100254.16;;;15.96;54.29
63088;BME280;49173;43.164;27.786;2024-02-23T12:08:16;100244.94;;;15.98;53.13
63088;BME280;49173;43.164;27.786;2024-02-23T12:10:42;100246.78;;;15.98;52.87
63088;BME280;49173;43.164;27.786;2024-02-23T12:13:08;100238.44;;;16.01;53.20
63088;BME280;49173;43.164;27.786;2024-02-23T12:15:33;100247.88;;;16.06;52.79
63088;BME280;49173;43.164;27.786;2024-02-23T12:17:59;100235.97;;;16.09;52.86
63088;BME280;49173;43.164;27.786;2024-02-23T12:20:32;100249.25;;;16.12;52.06
63088;BME280;49173;43.164;27.786;2024-02-23T12:22:58;100242.84;;;16.13;52.00
63088;BME280;49173;43.164;27.786;2024-02-23T12:25:25;100237.41;;;16.13;52.44
63088;BME280;49173;43.164;27.786;2024-02-23T12:27:55;100241.50;;;16.18;52.69
63088;BME280;49173;43.164;27.786;2024-02-23T12:30:22;100242.97;;;16.23;52.73
63088;BME280;49173;43.164;27.786;2024-02-23T12:32:48;100239.50;;;16.20;53.49
63088;BME280;49173;43.164;27.786;2024-02-23T12:35:14;100240.28;;;16.23;53.65
63088;BME280;49173;43.164;27.786;2024-02-23T12:37:39;100241.63;;;16.28;53.14
63088;BME280;49173;43.164;27.786;2024-02-23T12:40:06;100239.28;;;16.24;52.45